createdAt,value
2022-11-06T00:00:32.501Z,10.64
2022-11-06T00:03:00.878Z,10.46
2022-11-06T00:05:47.339Z,10.70
2022-11-06T00:08:16.273Z,10.83
2022-11-06T00:10:44.469Z,10.67
2022-11-06T00:13:13.957Z,10.78
2022-11-06T00:15:41.987Z,10.83
2022-11-06T00:18:10.181Z,10.58
2022-11-06T00:20:38.766Z,11.07
2022-11-06T00:23:06.900Z,10.69
2022-11-06T00:25:35.018Z,10.82
2022-11-06T00:28:03.079Z,10.87
2022-11-06T00:30:32.593Z,10.56
2022-11-06T00:33:00.682Z,10.49
2022-11-06T00:35:28.685Z,10.50
2022-11-06T00:37:57.321Z,10.56
2022-11-06T00:40:25.307Z,10.91
2022-11-06T00:42:57.791Z,10.86
2022-11-06T00:45:25.987Z,10.77
2022-11-06T00:47:55.329Z,10.76
2022-11-06T00:50:26.538Z,10.53
2022-11-06T00:52:55.783Z,10.69
2022-11-06T00:55:23.844Z,10.79
2022-11-06T00:57:52.316Z,10.76
2022-11-06T01:00:20.587Z,11.03
2022-11-06T01:02:48.739Z,10.95
2022-11-06T01:05:18.515Z,11.22
2022-11-06T01:07:46.598Z,11.43
2022-11-06T01:10:15.260Z,11.27
2022-11-06T01:12:43.277Z,10.74
2022-11-06T01:15:11.926Z,11.12
2022-11-06T01:17:39.927Z,10.90
2022-11-06T01:20:09.052Z,10.61
2022-11-06T01:22:38.547Z,10.75
2022-11-06T01:25:07.892Z,10.73
2022-11-06T01:27:35.910Z,10.64
2022-11-06T01:30:04.318Z,10.57
2022-11-06T01:32:32.320Z,11.03
2022-11-06T01:35:00.462Z,11.18
2022-11-06T01:37:28.460Z,11.13
2022-11-06T01:39:57.883Z,11.18
2022-11-06T01:42:25.895Z,10.95
2022-11-06T01:45:35.310Z,11.24
2022-11-06T01:48:04.393Z,11.41
2022-11-06T01:50:32.613Z,11.32
2022-11-06T01:53:02.559Z,10.95
2022-11-06T01:55:36.005Z,10.69
2022-11-06T01:58:06.604Z,10.74
2022-11-06T02:00:35.493Z,10.49
2022-11-06T02:03:04.315Z,10.44
2022-11-06T02:05:32.619Z,10.41
2022-11-06T02:08:02.087Z,10.77
2022-11-06T02:10:31.777Z,11.30
2022-11-06T02:13:16.917Z,11.65
2022-11-06T02:15:51.235Z,11.89
2022-11-06T02:18:42.008Z,11.93
2022-11-06T02:21:36.652Z,11.76
2022-11-06T02:24:31.015Z,11.70
2022-11-06T02:27:10.367Z,11.58
2022-11-06T02:29:46.936Z,11.24
2022-11-06T02:32:20.045Z,11.30
2022-11-06T02:34:50.457Z,10.52
2022-11-06T02:37:25.163Z,10.27
2022-11-06T02:39:55.926Z,10.56
2022-11-06T02:42:29.529Z,10.63
2022-11-06T02:44:59.565Z,10.35
2022-11-06T02:47:31.437Z,10.36
2022-11-06T02:50:05.886Z,10.36
2022-11-06T02:52:38.637Z,10.30
2022-11-06T02:55:12.422Z,10.44
2022-11-06T02:57:47.021Z,10.43
2022-11-06T03:00:17.755Z,10.28
2022-11-06T03:02:51.365Z,10.57
2022-11-06T03:05:25.401Z,10.86
2022-11-06T03:07:58.253Z,10.59
2022-11-06T03:10:31.078Z,10.88
2022-11-06T03:13:07.215Z,10.46
2022-11-06T03:15:41.202Z,10.38
2022-11-06T03:18:16.737Z,10.32
2022-11-06T03:20:55.592Z,10.62
2022-11-06T03:23:29.489Z,10.81
2022-11-06T03:26:04.336Z,10.76
2022-11-06T03:28:37.738Z,11.25
2022-11-06T03:31:12.207Z,11.21
2022-11-06T03:33:44.193Z,11.29
2022-11-06T03:36:18.349Z,11.20
2022-11-06T03:38:49.935Z,11.20
2022-11-06T03:41:23.733Z,11.15
2022-11-06T03:43:56.723Z,10.64
2022-11-06T03:46:27.863Z,10.73
2022-11-06T03:48:59.802Z,10.18
2022-11-06T03:51:33.440Z,10.36
2022-11-06T03:54:06.064Z,10.15
2022-11-06T03:56:41.761Z,10.21
2022-11-06T03:59:15.202Z,10.68
2022-11-06T04:01:47.851Z,10.83
2022-11-06T04:04:23.047Z,10.91
2022-11-06T04:06:54.705Z,10.77
2022-11-06T04:09:44.892Z,10.56
2022-11-06T04:12:33.856Z,10.41
2022-11-06T04:15:03.897Z,10.35
2022-11-06T04:17:32.638Z,10.38
2022-11-06T04:20:03.929Z,10.44
2022-11-06T04:22:43.766Z,10.69
2022-11-06T04:25:50.042Z,10.34
2022-11-06T04:28:31.143Z,10.83
2022-11-06T04:31:11.387Z,10.81
2022-11-06T04:33:46.860Z,11.24
2022-11-06T04:36:23.644Z,11.14
2022-11-06T04:39:02.293Z,11.28
2022-11-06T04:41:37.682Z,11.39
2022-11-06T04:44:10.246Z,11.38
2022-11-06T04:46:46.328Z,11.61
2022-11-06T04:49:15.536Z,11.62
2022-11-06T04:51:47.134Z,11.49
2022-11-06T04:54:16.211Z,11.55
2022-11-06T04:56:46.312Z,11.74
2022-11-06T04:59:17.612Z,11.65
2022-11-06T05:01:47.541Z,11.76
2022-11-06T05:04:16.631Z,11.46
2022-11-06T05:06:44.765Z,11.37
2022-11-06T05:09:13.025Z,11.24
2022-11-06T05:11:41.023Z,11.09
2022-11-06T05:14:09.038Z,10.79
2022-11-06T05:16:37.043Z,11.42
2022-11-06T05:19:06.557Z,11.44
2022-11-06T05:21:51.985Z,11.40
2022-11-06T05:24:19.947Z,11.25
2022-11-06T05:26:48.122Z,11.38
2022-11-06T05:29:16.340Z,10.98
2022-11-06T05:31:44.323Z,11.20
2022-11-06T05:34:13.770Z,10.97
2022-11-06T05:36:41.734Z,11.09
2022-11-06T05:39:10.085Z,11.21
2022-11-06T05:41:38.209Z,11.25
2022-11-06T05:44:06.473Z,11.07
2022-11-06T05:46:50.314Z,11.31
2022-11-06T05:49:20.415Z,11.39
2022-11-06T05:51:48.441Z,11.19
2022-11-06T05:54:16.593Z,11.37
2022-11-06T05:56:44.556Z,11.02
2022-11-06T05:59:13.143Z,10.81
2022-11-06T06:01:41.235Z,10.47
2022-11-06T06:04:09.334Z,10.08
2022-11-06T06:06:39.517Z,10.82
2022-11-06T06:09:07.504Z,10.94
2022-11-06T06:11:35.673Z,10.92
2022-11-06T06:14:03.688Z,10.90
2022-11-06T06:16:32.102Z,10.61
2022-11-06T06:19:00.110Z,10.63
2022-11-06T06:21:28.111Z,11.07
2022-11-06T06:23:57.471Z,11.21
2022-11-06T06:26:25.589Z,11.13
2022-11-06T06:28:53.549Z,11.33
2022-11-06T06:31:21.977Z,11.25
2022-11-06T06:33:50.242Z,11.36
2022-11-06T06:36:18.475Z,11.10
2022-11-06T06:38:46.480Z,11.55
2022-11-06T06:41:15.866Z,11.35
2022-11-06T06:43:43.853Z,10.92
2022-11-06T06:46:11.993Z,10.62
2022-11-06T06:48:40.011Z,10.71
2022-11-06T06:51:08.971Z,10.92
2022-11-06T06:53:37.702Z,11.20
2022-11-06T06:56:06.037Z,10.91
2022-11-06T06:58:35.408Z,10.88
2022-11-06T07:01:05.273Z,10.95
2022-11-06T07:03:33.954Z,11.20
2022-11-06T07:06:01.980Z,11.34
2022-11-06T07:08:30.875Z,11.35
2022-11-06T07:11:02.305Z,11.58
2022-11-06T07:13:35.385Z,10.77
2022-11-06T07:16:06.216Z,11.23
2022-11-06T07:18:34.414Z,11.64
2022-11-06T07:21:02.413Z,11.91
2022-11-06T07:23:30.348Z,11.87
2022-11-06T07:25:58.370Z,12.09
2022-11-06T07:28:26.615Z,12.18
2022-11-06T07:30:58.524Z,12.29
2022-11-06T07:33:28.090Z,11.72
2022-11-06T07:35:56.323Z,11.09
2022-11-06T07:38:24.325Z,11.62
2022-11-06T07:40:52.288Z,11.62
2022-11-06T07:43:20.225Z,11.17
2022-11-06T07:45:48.217Z,11.39
2022-11-06T07:48:16.516Z,11.75
2022-11-06T07:50:46.169Z,11.57
2022-11-06T07:53:14.473Z,11.30
2022-11-06T07:55:49.506Z,11.22
2022-11-06T07:58:17.812Z,10.97
2022-11-06T08:00:48.787Z,10.57
2022-11-06T08:03:17.504Z,11.18
2022-11-06T08:05:47.552Z,11.26
2022-11-06T08:08:15.954Z,11.44
2022-11-06T08:10:44.707Z,12.01
2022-11-06T08:13:13.810Z,12.31
2022-11-06T08:15:42.829Z,12.32
2022-11-06T08:18:12.485Z,12.29
2022-11-06T08:20:41.423Z,12.18
2022-11-06T08:23:14.025Z,12.00
2022-11-06T08:25:42.087Z,12.35
2022-11-06T08:28:11.417Z,12.70
2022-11-06T08:30:39.907Z,12.85
2022-11-06T08:33:09.412Z,13.02
2022-11-06T08:35:37.786Z,13.17
2022-11-06T08:38:05.856Z,13.24
2022-11-06T08:40:37.511Z,13.38
2022-11-06T08:43:07.136Z,13.47
2022-11-06T08:45:38.525Z,13.72
2022-11-06T08:48:07.217Z,13.72
2022-11-06T08:50:37.172Z,13.74
2022-11-06T08:53:06.953Z,13.61
2022-11-06T08:55:38.169Z,13.77
2022-11-06T08:58:07.179Z,13.88
2022-11-06T09:00:36.943Z,13.84
2022-11-06T09:03:07.690Z,13.76
2022-11-06T09:05:35.680Z,13.92
2022-11-06T09:08:03.661Z,14.11
2022-11-06T09:10:31.640Z,14.02
2022-11-06T09:13:01.169Z,14.14
2022-11-06T09:15:29.263Z,14.20
2022-11-06T09:17:57.389Z,13.88
2022-11-06T09:20:27.049Z,14.15
2022-11-06T09:22:55.540Z,14.32
2022-11-06T09:25:23.461Z,14.52
2022-11-06T09:27:58.858Z,14.46
2022-11-06T09:30:30.457Z,14.28
2022-11-06T09:33:00.451Z,14.22
2022-11-06T09:35:29.926Z,14.38
2022-11-06T09:38:03.178Z,14.15
2022-11-06T09:40:35.289Z,14.46
2022-11-06T09:43:16.179Z,14.34
2022-11-06T09:45:53.704Z,14.51
2022-11-06T09:48:28.846Z,14.50
2022-11-06T09:51:01.959Z,14.38
2022-11-06T09:53:35.739Z,14.54
2022-11-06T09:56:06.474Z,14.76
2022-11-06T09:58:38.654Z,14.68
2022-11-06T10:01:22.033Z,14.71
2022-11-06T10:03:57.805Z,14.51
2022-11-06T10:06:27.260Z,14.60
2022-11-06T10:08:58.437Z,14.53
2022-11-06T10:11:49.875Z,14.45
2022-11-06T10:14:29.105Z,14.32
2022-11-06T10:17:05.235Z,14.45
2022-11-06T10:19:41.468Z,14.27
2022-11-06T10:22:16.296Z,14.39
2022-11-06T10:24:47.729Z,14.39
2022-11-06T10:27:18.333Z,13.99
2022-11-06T10:30:04.673Z,14.17
2022-11-06T10:33:08.939Z,14.21
2022-11-06T10:35:39.782Z,13.97
2022-11-06T10:38:12.350Z,13.98
2022-11-06T10:40:41.163Z,13.97
2022-11-06T10:43:23.253Z,14.04
2022-11-06T10:45:56.029Z,14.20
2022-11-06T10:48:31.046Z,14.31
2022-11-06T10:51:19.718Z,14.41
2022-11-06T10:53:57.849Z,14.16
2022-11-06T10:56:51.320Z,14.00
2022-11-06T10:59:19.766Z,13.89
2022-11-06T11:01:47.951Z,14.03
2022-11-06T11:04:17.401Z,14.03
2022-11-06T11:06:45.330Z,14.09
2022-11-06T11:09:29.752Z,13.85
2022-11-06T11:11:58.086Z,14.06
2022-11-06T11:14:27.568Z,14.31
2022-11-06T11:16:56.974Z,14.30
2022-11-06T11:19:34.410Z,14.30
2022-11-06T11:22:05.265Z,14.40
2022-11-06T11:24:33.686Z,14.40
2022-11-06T11:27:04.789Z,14.40
2022-11-06T11:29:35.330Z,14.49
2022-11-06T11:32:07.068Z,14.40
2022-11-06T11:34:49.147Z,14.27
2022-11-06T11:37:27.282Z,14.29
2022-11-06T11:39:55.894Z,14.48
2022-11-06T11:42:29.774Z,14.43
2022-11-06T11:45:16.227Z,14.52
2022-11-06T11:47:47.305Z,14.36
2022-11-06T11:50:30.135Z,14.36
2022-11-06T11:53:07.135Z,14.21
2022-11-06T11:55:41.704Z,14.21
2022-11-06T11:58:21.277Z,14.22
2022-11-06T12:00:56.850Z,14.18
2022-11-06T12:03:28.496Z,14.28
2022-11-06T12:06:06.768Z,14.05
2022-11-06T12:08:35.087Z,13.75
2022-11-06T12:11:05.454Z,13.64
2022-11-06T12:13:33.629Z,13.93
2022-11-06T12:16:04.627Z,14.28
2022-11-06T12:18:36.202Z,14.41
2022-11-06T12:21:08.119Z,13.86
2022-11-06T12:23:50.098Z,13.67
2022-11-06T12:26:28.277Z,14.10
2022-11-06T12:29:04.990Z,14.33
2022-11-06T12:31:38.790Z,14.29
2022-11-06T12:34:17.257Z,14.31
2022-11-06T12:37:11.909Z,14.37
2022-11-06T12:39:44.173Z,14.42
2022-11-06T12:42:14.645Z,14.44
2022-11-06T12:44:42.806Z,14.42
2022-11-06T12:47:26.440Z,14.60
2022-11-06T12:50:13.793Z,14.61
2022-11-06T12:53:06.047Z,14.66
2022-11-06T12:55:38.886Z,14.78
2022-11-06T12:58:27.272Z,14.60
2022-11-06T13:01:04.238Z,14.50
2022-11-06T13:03:57.363Z,14.51
2022-11-06T13:06:34.826Z,14.56
2022-11-06T13:09:12.519Z,14.47
2022-11-06T13:11:47.022Z,14.54
2022-11-06T13:14:22.514Z,14.44
2022-11-06T13:17:01.075Z,14.58
2022-11-06T13:19:35.732Z,14.54
2022-11-06T13:22:18.012Z,14.45
2022-11-06T13:24:57.331Z,14.48
2022-11-06T13:27:32.449Z,14.48
2022-11-06T13:30:05.495Z,14.46
2022-11-06T13:32:37.353Z,14.48
2022-11-06T13:35:06.571Z,14.60
2022-11-06T13:37:40.412Z,14.64
2022-11-06T13:40:21.558Z,14.64
2022-11-06T13:42:54.766Z,14.35
2022-11-06T13:45:24.233Z,14.54
2022-11-06T13:48:06.569Z,14.51
2022-11-06T13:50:44.066Z,14.57
2022-11-06T13:53:22.165Z,14.37
2022-11-06T13:56:04.827Z,14.46
2022-11-06T13:58:54.596Z,14.54
2022-11-06T14:01:41.229Z,14.49
2022-11-06T14:04:49.631Z,14.57
2022-11-06T14:07:21.922Z,14.51
2022-11-06T14:09:50.495Z,14.47
2022-11-06T14:12:23.204Z,14.40
2022-11-06T14:14:56.258Z,14.43
2022-11-06T14:17:25.776Z,14.39
2022-11-06T14:20:07.685Z,14.34
2022-11-06T14:22:37.525Z,14.44
2022-11-06T14:25:38.613Z,14.43
2022-11-06T14:28:08.300Z,14.52
2022-11-06T14:31:11.055Z,14.52
2022-11-06T14:33:59.974Z,14.46
2022-11-06T14:36:36.349Z,14.42
2022-11-06T14:39:10.567Z,14.36
2022-11-06T14:41:58.030Z,14.30
2022-11-06T14:44:35.796Z,14.40
2022-11-06T14:47:08.003Z,14.35
2022-11-06T14:49:41.864Z,14.24
2022-11-06T14:52:13.307Z,14.12
2022-11-06T14:54:50.535Z,14.19
2022-11-06T14:57:34.969Z,14.17
2022-11-06T15:00:06.010Z,14.09
2022-11-06T15:02:37.421Z,14.11
2022-11-06T15:05:09.256Z,14.10
2022-11-06T15:08:10.405Z,14.01
2022-11-06T15:10:55.449Z,14.05
2022-11-06T15:13:33.941Z,14.03
2022-11-06T15:16:22.476Z,14.14
2022-11-06T15:18:52.407Z,14.14
2022-11-06T15:21:25.759Z,14.14
2022-11-06T15:24:05.409Z,14.08
2022-11-06T15:26:37.525Z,14.05
2022-11-06T15:29:18.242Z,14.07
2022-11-06T15:31:50.623Z,13.97
2022-11-06T15:34:24.941Z,14.04
2022-11-06T15:36:59.171Z,13.93
2022-11-06T15:39:39.262Z,13.87
2022-11-06T15:42:10.073Z,13.76
2022-11-06T15:44:41.445Z,13.81
2022-11-06T15:47:22.116Z,13.81
2022-11-06T15:49:50.303Z,13.89
2022-11-06T15:52:19.658Z,13.82
2022-11-06T15:54:49.275Z,13.86
2022-11-06T15:57:20.822Z,13.74
2022-11-06T15:59:49.102Z,13.69
2022-11-06T16:02:22.545Z,13.69
2022-11-06T16:04:51.350Z,13.64
2022-11-06T16:07:20.795Z,13.73
2022-11-06T16:09:51.606Z,13.69
2022-11-06T16:12:20.442Z,13.64
2022-11-06T16:14:48.448Z,13.64
2022-11-06T16:17:23.811Z,13.72
2022-11-06T16:19:53.549Z,13.48
2022-11-06T16:22:29.676Z,13.43
2022-11-06T16:25:01.854Z,13.48
2022-11-06T16:27:35.718Z,13.32
2022-11-06T16:30:04.941Z,13.31
2022-11-06T16:32:40.510Z,13.37
2022-11-06T16:35:33.119Z,13.37
2022-11-06T16:38:41.428Z,13.53
2022-11-06T16:41:36.254Z,13.44
2022-11-06T16:44:29.686Z,13.33
2022-11-06T16:47:15.404Z,13.32
2022-11-06T16:49:52.692Z,13.47
2022-11-06T16:52:26.551Z,13.41
2022-11-06T16:54:57.715Z,13.36
2022-11-06T16:57:28.850Z,13.38
2022-11-06T16:59:59.898Z,13.44
2022-11-06T17:02:32.180Z,13.47
2022-11-06T17:05:16.921Z,13.32
2022-11-06T17:07:46.415Z,13.42
2022-11-06T17:10:36.464Z,13.48
2022-11-06T17:13:25.676Z,13.29
2022-11-06T17:15:57.655Z,13.45
2022-11-06T17:18:27.842Z,13.12
2022-11-06T17:20:59.082Z,13.35
2022-11-06T17:23:29.253Z,13.48
2022-11-06T17:26:00.618Z,13.48
2022-11-06T17:28:29.314Z,13.32
2022-11-06T17:30:57.889Z,13.35
2022-11-06T17:33:25.929Z,13.43
2022-11-06T17:35:54.490Z,13.47
2022-11-06T17:38:27.070Z,13.36
2022-11-06T17:40:55.067Z,13.47
2022-11-06T17:43:24.969Z,13.46
2022-11-06T17:45:54.786Z,13.40
2022-11-06T17:48:23.104Z,13.51
2022-11-06T17:51:08.355Z,13.44
2022-11-06T17:53:37.733Z,13.50
2022-11-06T17:56:06.513Z,13.51
2022-11-06T17:58:35.447Z,13.43
2022-11-06T18:01:08.881Z,13.17
2022-11-06T18:03:43.076Z,13.26
2022-11-06T18:06:11.751Z,13.22
2022-11-06T18:08:41.111Z,13.18
2022-11-06T18:11:10.212Z,13.28
2022-11-06T18:13:39.223Z,13.27
2022-11-06T18:16:16.223Z,13.28
2022-11-06T18:18:44.527Z,13.30
2022-11-06T18:21:12.587Z,13.44
2022-11-06T18:23:41.917Z,13.52
2022-11-06T18:26:09.946Z,13.53
2022-11-06T18:28:38.001Z,13.51
2022-11-06T18:31:06.427Z,13.53
2022-11-06T18:33:34.752Z,13.52
2022-11-06T18:36:03.146Z,13.50
2022-11-06T18:38:31.413Z,13.41
2022-11-06T18:41:00.832Z,13.33
2022-11-06T18:43:28.850Z,13.35
2022-11-06T18:45:56.920Z,13.38
2022-11-06T18:48:25.248Z,13.21
2022-11-06T18:50:53.437Z,13.25
2022-11-06T18:53:22.755Z,13.11
2022-11-06T18:55:50.728Z,13.24
2022-11-06T18:58:20.216Z,12.98
2022-11-06T19:00:48.197Z,13.10
2022-11-06T19:03:16.197Z,13.15
2022-11-06T19:05:48.175Z,13.19
2022-11-06T19:08:16.659Z,13.25
2022-11-06T19:10:44.803Z,13.25
2022-11-06T19:13:12.936Z,13.28
2022-11-06T19:15:42.952Z,13.09
2022-11-06T19:18:11.693Z,13.19
2022-11-06T19:20:41.318Z,13.16
2022-11-06T19:23:09.898Z,13.17
2022-11-06T19:25:41.127Z,13.15
2022-11-06T19:28:09.562Z,13.17
2022-11-06T19:30:37.903Z,13.08
2022-11-06T19:33:07.309Z,13.09
2022-11-06T19:35:35.499Z,12.99
2022-11-06T19:38:03.800Z,13.10
2022-11-06T19:40:32.650Z,13.13
2022-11-06T19:43:03.845Z,13.15
2022-11-06T19:45:31.867Z,13.24
2022-11-06T19:48:01.090Z,13.13
2022-11-06T19:50:58.103Z,13.17
2022-11-06T19:53:20.061Z,13.17
2022-11-06T19:55:48.808Z,13.15
2022-11-06T19:58:18.431Z,13.14
2022-11-06T20:00:48.526Z,13.02
2022-11-06T20:03:17.555Z,13.01
2022-11-06T20:05:47.484Z,13.00
2022-11-06T20:08:15.867Z,12.93
2022-11-06T20:10:43.887Z,12.85
2022-11-06T20:13:12.168Z,12.89
2022-11-06T20:15:40.784Z,12.72
2022-11-06T20:18:09.436Z,12.71
2022-11-06T20:20:37.687Z,12.78
2022-11-06T20:23:07.014Z,12.75
2022-11-06T20:25:34.969Z,12.63
2022-11-06T20:28:03.010Z,12.72
2022-11-06T20:30:31.056Z,12.78
2022-11-06T20:32:59.088Z,12.67
2022-11-06T20:35:27.139Z,12.73
2022-11-06T20:37:55.136Z,12.76
2022-11-06T20:40:24.561Z,12.81
2022-11-06T20:42:52.586Z,12.77
2022-11-06T20:45:20.621Z,12.62
2022-11-06T20:47:48.580Z,12.66
2022-11-06T20:50:17.009Z,12.71
2022-11-06T20:52:45.425Z,12.66
2022-11-06T20:55:13.450Z,12.45
2022-11-06T20:57:42.776Z,12.43
2022-11-06T21:00:12.462Z,12.51
2022-11-06T21:02:40.595Z,12.37
2022-11-06T21:05:09.353Z,12.29
2022-11-06T21:07:37.337Z,12.41
2022-11-06T21:10:06.067Z,12.41
2022-11-06T21:12:34.361Z,12.35
2022-11-06T21:15:03.916Z,12.42
2022-11-06T21:17:31.998Z,12.40
2022-11-06T21:20:00.146Z,12.44
2022-11-06T21:22:28.174Z,12.46
2022-11-06T21:24:56.276Z,12.40
2022-11-06T21:27:24.356Z,12.23
2022-11-06T21:29:52.349Z,12.32
2022-11-06T21:32:21.729Z,12.27
2022-11-06T21:34:49.737Z,12.35
2022-11-06T21:37:17.820Z,12.28
2022-11-06T21:39:45.807Z,12.27
2022-11-06T21:42:13.839Z,12.30
2022-11-06T21:44:42.203Z,12.27
2022-11-06T21:47:10.235Z,12.38
2022-11-06T21:49:39.546Z,12.38
2022-11-06T21:52:29.115Z,12.39
2022-11-06T21:55:15.015Z,12.35
2022-11-06T21:57:42.978Z,12.28
2022-11-06T22:00:14.381Z,12.34
2022-11-06T22:02:43.470Z,12.31
2022-11-06T22:05:12.948Z,12.53
2022-11-06T22:07:40.954Z,12.38
2022-11-06T22:10:09.791Z,12.37
2022-11-06T22:12:37.931Z,12.42
2022-11-06T22:15:06.584Z,12.45
2022-11-06T22:17:34.568Z,12.33
2022-11-06T22:20:03.354Z,12.50
2022-11-06T22:22:32.747Z,12.47
2022-11-06T22:25:00.748Z,12.47
2022-11-06T22:27:28.761Z,12.28
2022-11-06T22:29:56.747Z,12.36
2022-11-06T22:32:25.019Z,12.22
2022-11-06T22:34:53.238Z,12.56
2022-11-06T22:37:21.301Z,12.49
2022-11-06T22:39:50.729Z,12.56
2022-11-06T22:42:18.815Z,12.53
2022-11-06T22:44:46.994Z,12.51
2022-11-06T22:47:15.115Z,12.52
2022-11-06T22:49:43.110Z,12.57
2022-11-06T22:52:11.127Z,12.50
2022-11-06T22:54:39.075Z,12.49
2022-11-06T22:57:08.425Z,12.43
2022-11-06T22:59:36.368Z,12.32
2022-11-06T23:02:04.490Z,12.42
2022-11-06T23:04:32.714Z,12.52
2022-11-06T23:07:00.686Z,12.58
2022-11-06T23:09:28.771Z,12.62
2022-11-06T23:11:56.824Z,12.61
2022-11-06T23:14:26.350Z,12.59
2022-11-06T23:17:00.860Z,12.53
2022-11-06T23:19:31.089Z,12.49
2022-11-06T23:22:13.228Z,12.40
2022-11-06T23:24:41.392Z,12.40
2022-11-06T23:27:10.637Z,12.44
2022-11-06T23:29:40.730Z,12.46
2022-11-06T23:32:09.111Z,12.47
2022-11-06T23:34:37.158Z,12.35
2022-11-06T23:37:05.097Z,12.51
2022-11-06T23:39:33.135Z,12.52
2022-11-06T23:42:01.125Z,12.55
2022-11-06T23:44:46.437Z,12.55
2022-11-06T23:47:15.913Z,12.50
2022-11-06T23:49:43.960Z,12.57
2022-11-06T23:52:11.883Z,12.54
2022-11-06T23:54:39.937Z,12.57
2022-11-06T23:57:08.640Z,12.50
2022-11-06T23:59:36.867Z,12.58
